createdAt,value
2018-07-30T00:02:12.340Z,2.40
2018-07-30T00:04:40.664Z,2.27
2018-07-30T00:07:09.060Z,3.50
2018-07-30T00:09:37.402Z,3.63
2018-07-30T00:12:05.978Z,3.90
2018-07-30T00:14:34.920Z,3.23
2018-07-30T00:17:04.038Z,3.67
2018-07-30T00:19:32.384Z,3.33
2018-07-30T00:22:00.882Z,4.00
2018-07-30T00:24:29.246Z,2.10
2018-07-30T00:26:57.644Z,3.07
2018-07-30T00:29:25.989Z,2.77
2018-07-30T00:31:54.378Z,2.60
2018-07-30T00:34:22.722Z,2.00
2018-07-30T00:36:51.112Z,2.20
2018-07-30T00:39:19.479Z,2.40
2018-07-30T00:41:47.850Z,1.93
2018-07-30T00:44:16.866Z,2.33
2018-07-30T00:46:45.328Z,2.40
2018-07-30T00:49:13.537Z,2.97
2018-07-30T00:51:41.958Z,2.50
2018-07-30T00:54:10.315Z,3.10
2018-07-30T00:56:38.687Z,3.23
2018-07-30T00:59:07.135Z,2.60
2018-07-30T01:01:35.521Z,3.03
2018-07-30T01:04:03.950Z,2.67
2018-07-30T01:06:32.276Z,2.10
2018-07-30T01:09:01.282Z,2.53
2018-07-30T01:11:36.239Z,2.57
2018-07-30T01:14:04.625Z,2.47
2018-07-30T01:16:32.995Z,2.30
2018-07-30T01:19:01.338Z,2.50
2018-07-30T01:21:29.781Z,2.00
2018-07-30T01:23:58.108Z,3.07
2018-07-30T01:26:33.163Z,3.17
2018-07-30T01:29:01.518Z,3.23
2018-07-30T01:31:30.644Z,3.00
2018-07-30T01:33:58.977Z,2.87
2018-07-30T01:36:27.354Z,2.30
2018-07-30T01:38:56.052Z,2.80
2018-07-30T01:41:24.503Z,2.67
2018-07-30T01:43:52.864Z,2.67
2018-07-30T01:46:21.221Z,2.70
2018-07-30T01:48:49.557Z,2.33
2018-07-30T01:51:17.927Z,2.70
2018-07-30T01:53:46.335Z,2.60
2018-07-30T01:56:14.723Z,2.30
2018-07-30T01:58:43.055Z,2.03
2018-07-30T02:01:11.089Z,4.00
2018-07-30T02:03:39.479Z,3.87
2018-07-30T02:06:07.833Z,3.90
2018-07-30T02:08:36.239Z,2.90
2018-07-30T02:11:04.606Z,3.50
2018-07-30T02:13:33.905Z,4.13
2018-07-30T02:16:02.263Z,3.07
2018-07-30T02:18:30.614Z,2.93
2018-07-30T02:20:59.216Z,2.37
2018-07-30T02:23:28.335Z,3.60
2018-07-30T02:25:56.698Z,2.80
2018-07-30T02:28:25.673Z,2.60
2018-07-30T02:30:54.020Z,2.87
2018-07-30T02:33:22.520Z,2.13
2018-07-30T02:35:50.592Z,2.50
2018-07-30T02:38:19.074Z,3.00
2018-07-30T02:40:47.436Z,2.20
2018-07-30T02:43:15.822Z,2.80
2018-07-30T02:45:44.198Z,2.70
2018-07-30T02:48:12.560Z,3.20
2018-07-30T02:50:41.114Z,2.50
2018-07-30T02:53:09.486Z,3.50
2018-07-30T02:55:37.832Z,4.70
2018-07-30T02:58:06.235Z,4.10
2018-07-30T03:00:35.245Z,3.73
2018-07-30T03:03:03.602Z,3.93
2018-07-30T03:05:31.948Z,3.90
2018-07-30T03:08:00.276Z,3.13
2018-07-30T03:10:28.644Z,3.10
2018-07-30T03:12:56.979Z,2.53
2018-07-30T03:15:25.395Z,3.73
2018-07-30T03:17:53.790Z,3.67
2018-07-30T03:20:22.278Z,4.87
2018-07-30T03:22:50.643Z,4.77
2018-07-30T03:25:19.038Z,3.80
2018-07-30T03:27:47.433Z,2.70
2018-07-30T03:30:15.837Z,2.70
2018-07-30T03:32:43.944Z,2.53
2018-07-30T03:35:12.388Z,2.63
2018-07-30T03:37:40.778Z,2.23
2018-07-30T03:40:09.112Z,4.63
2018-07-30T03:42:37.754Z,3.63
2018-07-30T03:45:07.444Z,2.80
2018-07-30T03:47:35.797Z,2.63
2018-07-30T03:50:04.537Z,3.23
2018-07-30T03:52:33.452Z,2.17
2018-07-30T03:55:01.823Z,2.27
2018-07-30T03:57:30.907Z,3.40
2018-07-30T03:59:59.318Z,4.00
2018-07-30T04:02:27.633Z,3.03
2018-07-30T04:04:55.991Z,3.17
2018-07-30T04:07:24.375Z,2.80
2018-07-30T04:09:52.707Z,2.77
2018-07-30T04:12:21.055Z,3.30
2018-07-30T04:14:49.434Z,3.53
2018-07-30T04:17:17.489Z,2.60
2018-07-30T04:19:45.535Z,2.80
2018-07-30T04:22:13.886Z,2.83
2018-07-30T04:24:42.219Z,2.13
2018-07-30T04:27:11.237Z,3.10
2018-07-30T04:29:39.629Z,3.23
2018-07-30T04:32:08.165Z,2.10
2018-07-30T04:34:36.493Z,2.37
2018-07-30T04:37:04.831Z,2.27
2018-07-30T04:39:32.909Z,2.20
2018-07-30T04:42:00.966Z,3.53
2018-07-30T04:44:30.060Z,4.13
2018-07-30T04:46:58.431Z,3.23
2018-07-30T04:49:26.851Z,5.00
2018-07-30T04:51:55.197Z,4.17
2018-07-30T04:54:23.547Z,4.50
2018-07-30T04:56:51.958Z,3.43
2018-07-30T04:59:20.282Z,4.00
2018-07-30T05:01:48.697Z,3.57
2018-07-30T05:04:17.051Z,3.60
2018-07-30T05:06:45.389Z,3.70
2018-07-30T05:09:13.645Z,3.60
2018-07-30T05:11:42.001Z,3.10
2018-07-30T05:14:10.371Z,4.37
2018-07-30T05:16:38.727Z,3.23
2018-07-30T05:19:07.163Z,4.23
2018-07-30T05:21:35.555Z,4.10
2018-07-30T05:24:04.079Z,4.60
2018-07-30T05:26:32.443Z,4.27
2018-07-30T05:29:00.838Z,3.93
2018-07-30T05:31:29.233Z,4.47
2018-07-30T05:33:57.636Z,4.60
2018-07-30T05:36:26.560Z,3.30
2018-07-30T05:38:54.968Z,4.07
2018-07-30T05:41:23.311Z,3.60
2018-07-30T05:43:51.939Z,4.20
2018-07-30T05:46:20.881Z,3.97
2018-07-30T05:48:49.247Z,3.20
2018-07-30T05:51:17.745Z,3.40
2018-07-30T05:53:45.849Z,4.13
2018-07-30T05:56:14.226Z,4.20
2018-07-30T05:58:42.603Z,4.73
2018-07-30T06:01:11.058Z,3.63
2018-07-30T06:03:39.411Z,5.00
2018-07-30T06:06:07.767Z,4.77
2018-07-30T06:08:36.119Z,5.10
2018-07-30T06:11:04.603Z,4.50
2018-07-30T06:13:32.957Z,4.07
2018-07-30T06:16:01.329Z,4.47
2018-07-30T06:18:29.649Z,5.10
2018-07-30T06:20:58.025Z,5.33
2018-07-30T06:23:26.353Z,4.50
2018-07-30T06:25:54.386Z,4.20
2018-07-30T06:28:22.785Z,5.33
2018-07-30T06:30:51.164Z,5.47
2018-07-30T06:33:19.517Z,4.47
2018-07-30T06:35:47.958Z,5.17
2018-07-30T06:38:16.287Z,4.47
2018-07-30T06:40:44.628Z,3.80
2018-07-30T06:43:12.979Z,4.87
2018-07-30T06:45:41.340Z,4.90
2018-07-30T06:48:09.691Z,3.90
2018-07-30T06:50:38.829Z,4.50
2018-07-30T06:53:06.938Z,4.40
2018-07-30T06:55:34.957Z,3.67
2018-07-30T06:58:03.451Z,4.63
2018-07-30T07:00:31.800Z,5.13
2018-07-30T07:03:00.223Z,4.67
2018-07-30T07:05:28.576Z,3.63
2018-07-30T07:07:56.924Z,3.93
2018-07-30T07:10:25.312Z,3.80
2018-07-30T07:12:53.754Z,4.20
2018-07-30T07:15:22.187Z,4.43
2018-07-30T07:17:50.532Z,4.40
2018-07-30T07:20:18.856Z,3.63
2018-07-30T07:22:47.267Z,3.87
2018-07-30T07:25:15.635Z,3.50
2018-07-30T07:27:45.445Z,3.70
2018-07-30T07:30:13.529Z,3.40
2018-07-30T07:32:42.148Z,4.10
2018-07-30T07:35:10.517Z,3.90
2018-07-30T07:37:39.000Z,3.80
2018-07-30T07:40:08.083Z,3.77
2018-07-30T07:42:36.535Z,4.30
2018-07-30T07:45:06.275Z,4.20
2018-07-30T07:47:34.661Z,3.60
2018-07-30T07:50:03.126Z,3.37
2018-07-30T07:52:31.451Z,3.17
2018-07-30T07:55:00.763Z,3.93
2018-07-30T07:57:29.205Z,4.33
2018-07-30T07:59:57.600Z,3.37
2018-07-30T08:02:26.720Z,3.63
2018-07-30T08:04:55.183Z,3.83
2018-07-30T08:07:23.595Z,3.50
2018-07-30T08:09:52.701Z,3.53
2018-07-30T08:12:21.007Z,3.13
2018-07-30T08:14:49.426Z,2.77
2018-07-30T08:17:17.819Z,2.77
2018-07-30T08:19:46.205Z,2.80
2018-07-30T08:22:14.620Z,3.13
2018-07-30T08:24:42.948Z,1.90
2018-07-30T08:27:11.429Z,2.47
2018-07-30T08:29:39.806Z,2.03
2018-07-30T08:32:08.361Z,2.27
2018-07-30T08:34:37.233Z,2.20
2018-07-30T08:37:06.423Z,2.00
2018-07-30T08:39:34.988Z,2.30
2018-07-30T08:42:03.420Z,3.07
2018-07-30T08:44:32.466Z,2.90
2018-07-30T08:47:01.052Z,2.33
2018-07-30T08:49:29.550Z,2.53
2018-07-30T08:51:58.620Z,2.70
2018-07-30T08:54:27.053Z,2.77
2018-07-30T08:56:56.182Z,3.10
2018-07-30T08:59:25.349Z,2.63
2018-07-30T09:01:53.742Z,2.70
2018-07-30T09:04:22.397Z,3.40
2018-07-30T09:06:50.812Z,2.57
2018-07-30T09:09:19.599Z,2.60
2018-07-30T09:11:48.069Z,1.83
2018-07-30T09:14:16.450Z,2.37
2018-07-30T09:16:44.843Z,2.00
2018-07-30T09:19:13.202Z,2.03
2018-07-30T09:21:41.621Z,2.13
2018-07-30T09:24:09.702Z,1.57
2018-07-30T09:26:38.068Z,1.93
2018-07-30T09:29:06.335Z,1.60
2018-07-30T09:31:34.724Z,1.70
2018-07-30T09:34:03.184Z,1.67
2018-07-30T09:36:31.565Z,2.30
2018-07-30T09:38:59.925Z,1.73
2018-07-30T09:41:28.378Z,1.60
2018-07-30T09:43:56.801Z,2.13
2018-07-30T09:46:25.208Z,1.97
2018-07-30T09:48:53.818Z,2.10
2018-07-30T09:51:22.198Z,1.93
2018-07-30T09:53:50.564Z,1.73
2018-07-30T09:56:19.024Z,1.50
2018-07-30T09:58:47.431Z,2.60
2018-07-30T10:01:21.133Z,2.20
2018-07-30T10:03:49.600Z,2.20
2018-07-30T10:06:18.055Z,2.20
2018-07-30T10:08:46.403Z,1.70
2018-07-30T10:11:14.906Z,1.50
2018-07-30T10:13:43.451Z,1.77
2018-07-30T10:16:11.956Z,1.93
2018-07-30T10:18:40.414Z,2.30
2018-07-30T10:21:08.834Z,2.17
2018-07-30T10:23:37.378Z,2.13
2018-07-30T10:26:05.814Z,1.67
2018-07-30T10:28:34.992Z,1.90
2018-07-30T10:31:03.678Z,2.73
2018-07-30T10:33:32.184Z,1.60
2018-07-30T10:36:00.544Z,1.90
2018-07-30T10:38:29.014Z,1.40
2018-07-30T10:40:57.814Z,2.10
2018-07-30T10:43:26.200Z,2.30
2018-07-30T10:45:54.618Z,2.00
2018-07-30T10:48:23.008Z,1.57
2018-07-30T10:50:51.498Z,1.73
2018-07-30T10:53:19.864Z,2.17
2018-07-30T10:55:48.259Z,1.83
2018-07-30T10:58:16.582Z,2.10
2018-07-30T11:00:44.955Z,2.03
2018-07-30T11:03:13.292Z,1.70
2018-07-30T11:05:41.693Z,1.70
2018-07-30T11:08:10.102Z,1.50
2018-07-30T11:10:38.478Z,1.40
2018-07-30T11:13:06.912Z,1.80
2018-07-30T11:15:35.276Z,1.60
2018-07-30T11:18:03.648Z,1.90
2018-07-30T11:20:31.991Z,1.93
2018-07-30T11:23:00.333Z,1.53
2018-07-30T11:25:28.755Z,2.20
2018-07-30T11:27:57.223Z,1.67
2018-07-30T11:30:25.591Z,1.77
2018-07-30T11:32:53.939Z,1.77
2018-07-30T11:35:22.541Z,2.00
2018-07-30T11:37:50.923Z,1.97
2018-07-30T11:40:19.363Z,2.20
2018-07-30T11:42:49.898Z,1.80
2018-07-30T11:45:18.311Z,1.57
2018-07-30T11:47:46.693Z,1.57
2018-07-30T11:50:15.084Z,1.60
2018-07-30T11:52:43.581Z,1.70
2018-07-30T11:55:12.632Z,1.80
2018-07-30T11:57:41.105Z,1.47
2018-07-30T12:00:09.453Z,1.80
2018-07-30T12:02:37.883Z,1.40
2018-07-30T12:05:08.519Z,1.47
2018-07-30T12:07:37.014Z,1.30
2018-07-30T12:10:05.370Z,1.60
2018-07-30T12:12:33.721Z,1.60
2018-07-30T12:15:02.078Z,1.77
2018-07-30T12:17:31.198Z,1.70
2018-07-30T12:19:59.605Z,1.70
2018-07-30T12:22:28.707Z,1.50
2018-07-30T12:24:57.059Z,1.77
2018-07-30T12:27:28.356Z,1.70
2018-07-30T12:29:56.769Z,2.17
2018-07-30T12:32:25.419Z,1.87
2018-07-30T12:35:00.535Z,1.80
2018-07-30T12:37:28.927Z,1.83
2018-07-30T12:39:57.865Z,1.83
2018-07-30T12:42:26.284Z,1.47
2018-07-30T12:44:54.628Z,1.63
2018-07-30T12:47:23.119Z,2.40
2018-07-30T12:49:52.052Z,2.40
2018-07-30T12:52:20.492Z,1.73
2018-07-30T12:54:48.845Z,2.00
2018-07-30T12:57:17.252Z,1.87
2018-07-30T12:59:45.674Z,2.30
2018-07-30T13:02:13.920Z,2.20
2018-07-30T13:04:43.307Z,1.77
2018-07-30T13:07:11.682Z,1.70
2018-07-30T13:09:40.049Z,1.77
2018-07-30T13:12:09.081Z,1.80
2018-07-30T13:14:37.458Z,2.10
2018-07-30T13:17:05.950Z,1.60
2018-07-30T13:19:34.304Z,1.77
2018-07-30T13:22:02.674Z,1.60
2018-07-30T13:24:31.124Z,1.60
2018-07-30T13:26:59.586Z,2.20
2018-07-30T13:29:27.951Z,2.47
2018-07-30T13:31:56.491Z,2.03
2018-07-30T13:34:25.077Z,2.40
2018-07-30T13:36:53.482Z,1.87
2018-07-30T13:39:21.851Z,2.40
2018-07-30T13:41:50.217Z,2.20
2018-07-30T13:44:20.111Z,2.17
2018-07-30T13:46:48.813Z,1.80
2018-07-30T13:49:17.192Z,2.33
2018-07-30T13:51:47.492Z,2.10
2018-07-30T13:54:15.887Z,2.13
2018-07-30T13:56:44.264Z,2.03
2018-07-30T13:59:12.676Z,2.23
2018-07-30T14:01:41.060Z,1.70
2018-07-30T14:04:09.422Z,2.53
2018-07-30T14:06:37.800Z,1.63
2018-07-30T14:09:08.544Z,2.00
2018-07-30T14:11:36.964Z,2.03
2018-07-30T14:14:05.052Z,1.77
2018-07-30T14:16:33.571Z,2.30
2018-07-30T14:19:02.054Z,2.30
2018-07-30T14:21:30.508Z,1.73
2018-07-30T14:23:58.968Z,1.93
2018-07-30T14:26:27.368Z,2.43
2018-07-30T14:28:56.339Z,1.47
2018-07-30T14:31:24.738Z,1.93
2018-07-30T14:33:55.128Z,1.97
2018-07-30T14:36:23.396Z,2.30
2018-07-30T14:38:52.786Z,2.20
2018-07-30T14:41:21.173Z,1.93
2018-07-30T14:43:49.662Z,1.97
2018-07-30T14:46:18.172Z,2.10
2018-07-30T14:48:46.609Z,2.13
2018-07-30T14:51:15.084Z,1.93
2018-07-30T14:53:43.526Z,1.70
2018-07-30T14:56:11.890Z,4.50
2018-07-30T14:58:40.328Z,3.43
2018-07-30T15:01:08.770Z,2.27
2018-07-30T15:03:37.147Z,2.17
2018-07-30T15:06:05.603Z,2.10
2018-07-30T15:08:34.114Z,2.53
2018-07-30T15:11:02.554Z,2.30
2018-07-30T15:13:30.906Z,2.13
2018-07-30T15:15:59.268Z,2.60
2018-07-30T15:18:27.654Z,2.20
2018-07-30T15:20:56.086Z,2.37
2018-07-30T15:23:24.562Z,2.40
2018-07-30T15:25:52.743Z,2.67
2018-07-30T15:28:21.214Z,1.90
2018-07-30T15:30:49.815Z,2.70
2018-07-30T15:33:18.227Z,2.17
2018-07-30T15:35:46.608Z,2.27
2018-07-30T15:38:14.976Z,2.77
2018-07-30T15:40:43.366Z,2.10
2018-07-30T15:43:18.332Z,2.17
2018-07-30T15:45:46.745Z,2.30
2018-07-30T15:48:15.151Z,2.77
2018-07-30T15:50:43.523Z,2.12
2018-07-30T15:53:11.894Z,2.50
2018-07-30T15:55:40.632Z,2.45
2018-07-30T15:58:09.034Z,2.20
2018-07-30T16:00:37.502Z,2.50
2018-07-30T16:03:06.154Z,2.23
2018-07-30T16:05:34.547Z,1.57
2018-07-30T16:08:02.936Z,2.70
2018-07-30T16:10:31.440Z,2.22
2018-07-30T16:12:59.535Z,2.20
2018-07-30T16:15:28.714Z,2.15
2018-07-30T16:17:57.158Z,2.17
2018-07-30T16:20:25.440Z,2.40
2018-07-30T16:22:53.847Z,2.23
2018-07-30T16:25:22.327Z,2.43
2018-07-30T16:27:50.562Z,2.30
2018-07-30T16:30:18.631Z,2.23
2018-07-30T16:32:46.993Z,2.20
2018-07-30T16:35:15.377Z,2.23
2018-07-30T16:37:43.776Z,2.47
2018-07-30T16:40:12.124Z,2.20
2018-07-30T16:42:40.802Z,2.80
2018-07-30T16:45:09.594Z,3.57
2018-07-30T16:47:38.251Z,2.30
2018-07-30T16:50:07.813Z,2.40
2018-07-30T16:52:36.174Z,2.20
2018-07-30T16:55:04.676Z,2.10
2018-07-30T16:57:32.847Z,2.80
2018-07-30T17:00:01.236Z,2.70
2018-07-30T17:02:29.638Z,2.60
2018-07-30T17:04:58.799Z,3.00
2018-07-30T17:07:27.180Z,2.37
2018-07-30T17:09:55.581Z,2.17
2018-07-30T17:12:23.958Z,2.30
2018-07-30T17:14:52.295Z,2.33
2018-07-30T17:17:27.356Z,2.27
2018-07-30T17:19:55.783Z,2.77
2018-07-30T17:22:24.191Z,2.70
2018-07-30T17:24:52.671Z,2.50
2018-07-30T17:27:20.999Z,1.80
2018-07-30T17:29:49.123Z,2.13
2018-07-30T17:32:17.144Z,2.23
2018-07-30T17:34:46.288Z,2.20
2018-07-30T17:37:21.344Z,2.20
2018-07-30T17:39:49.771Z,2.10
2018-07-30T17:42:18.141Z,1.97
2018-07-30T17:44:46.512Z,1.90
2018-07-30T17:47:15.002Z,1.80
2018-07-30T17:49:43.452Z,1.73
2018-07-30T17:52:12.045Z,2.20
2018-07-30T17:54:40.451Z,2.10
2018-07-30T17:57:08.915Z,1.90
2018-07-30T17:59:37.879Z,1.60
2018-07-30T18:02:06.386Z,2.10
2018-07-30T18:04:35.341Z,1.93
2018-07-30T18:07:03.923Z,1.70
2018-07-30T18:09:33.115Z,1.40
2018-07-30T18:12:02.242Z,2.97
2018-07-30T18:14:30.731Z,2.40
2018-07-30T18:16:59.112Z,2.30
2018-07-30T18:19:27.517Z,2.10
2018-07-30T18:21:55.881Z,2.23
2018-07-30T18:24:24.258Z,2.00
2018-07-30T18:26:52.701Z,1.67
2018-07-30T18:29:21.091Z,2.10
2018-07-30T18:31:49.743Z,1.93
2018-07-30T18:34:18.773Z,2.00
2018-07-30T18:36:47.159Z,1.83
2018-07-30T18:39:15.572Z,1.67
2018-07-30T18:41:43.924Z,1.80
2018-07-30T18:44:12.607Z,1.83
2018-07-30T18:46:40.985Z,1.73
2018-07-30T18:49:09.395Z,1.90
2018-07-30T18:51:37.809Z,2.20
2018-07-30T18:54:06.357Z,2.27
2018-07-30T18:56:34.775Z,2.53
2018-07-30T18:59:03.063Z,2.40
2018-07-30T19:01:31.483Z,2.40
2018-07-30T19:04:00.103Z,2.57
2018-07-30T19:06:28.511Z,2.27
2018-07-30T19:08:57.053Z,2.43
2018-07-30T19:11:25.389Z,2.30
2018-07-30T19:13:53.747Z,2.73
2018-07-30T19:16:22.135Z,2.57
2018-07-30T19:18:50.825Z,2.30
2018-07-30T19:21:19.227Z,2.13
2018-07-30T19:23:47.617Z,1.93
2018-07-30T19:26:16.059Z,2.20
2018-07-30T19:28:44.424Z,1.40
2018-07-30T19:31:12.899Z,2.53
2018-07-30T19:33:41.311Z,1.97
2018-07-30T19:36:09.677Z,2.13
2018-07-30T19:38:38.044Z,1.40
2018-07-30T19:41:06.529Z,2.03
2018-07-30T19:43:34.945Z,1.80
2018-07-30T19:46:03.376Z,2.20
2018-07-30T19:48:31.822Z,1.77
2018-07-30T19:51:06.692Z,2.13
2018-07-30T19:53:35.080Z,3.00
2018-07-30T19:56:03.424Z,2.23
2018-07-30T19:58:31.928Z,1.90
2018-07-30T20:01:00.405Z,3.23
2018-07-30T20:03:28.813Z,2.13
2018-07-30T20:05:57.206Z,2.67
2018-07-30T20:08:26.262Z,1.90
2018-07-30T20:10:54.306Z,2.23
2018-07-30T20:13:22.440Z,2.17
2018-07-30T20:15:50.826Z,2.27
2018-07-30T20:18:19.162Z,2.37
2018-07-30T20:20:47.532Z,1.43
2018-07-30T20:23:15.980Z,2.27
2018-07-30T20:25:44.457Z,2.63
2018-07-30T20:28:12.872Z,2.63
2018-07-30T20:30:41.281Z,1.73
2018-07-30T20:33:09.678Z,4.20
2018-07-30T20:35:38.142Z,3.60
2018-07-30T20:38:06.574Z,2.73
2018-07-30T20:40:34.952Z,2.57
2018-07-30T20:43:03.400Z,2.83
2018-07-30T20:45:31.763Z,2.67
2018-07-30T20:48:00.163Z,2.60
2018-07-30T20:50:28.565Z,3.00
2018-07-30T20:52:57.661Z,2.93
2018-07-30T20:55:26.133Z,3.50
2018-07-30T20:57:54.600Z,3.20
2018-07-30T21:00:23.033Z,3.53
2018-07-30T21:02:58.109Z,2.97
2018-07-30T21:05:30.793Z,2.77
2018-07-30T21:07:59.204Z,3.23
2018-07-30T21:10:27.585Z,3.93
2018-07-30T21:12:55.985Z,3.77
2018-07-30T21:15:24.360Z,3.07
2018-07-30T21:17:59.272Z,2.97
2018-07-30T21:20:27.930Z,3.10
2018-07-30T21:22:56.282Z,3.00
2018-07-30T21:25:24.650Z,2.63
2018-07-30T21:27:53.013Z,2.90
2018-07-30T21:30:21.460Z,2.50
2018-07-30T21:32:49.866Z,2.63
2018-07-30T21:35:18.286Z,2.40
2018-07-30T21:37:46.698Z,2.10
2018-07-30T21:40:15.449Z,2.03
2018-07-30T21:42:43.873Z,2.83
2018-07-30T21:45:12.220Z,2.60
2018-07-30T21:47:40.619Z,2.40
2018-07-30T21:50:09.051Z,2.93
2018-07-30T21:52:37.443Z,3.50
2018-07-30T21:55:05.812Z,3.77
2018-07-30T21:57:34.964Z,4.87
2018-07-30T22:00:04.258Z,3.80
2018-07-30T22:02:32.665Z,2.70
2018-07-30T22:05:01.028Z,4.10
2018-07-30T22:07:29.480Z,4.17
2018-07-30T22:09:57.822Z,3.63
2018-07-30T22:12:26.168Z,4.37
2018-07-30T22:14:54.568Z,3.83
2018-07-30T22:17:22.901Z,4.93
2018-07-30T22:19:51.296Z,3.97
2018-07-30T22:22:19.676Z,4.00
2018-07-30T22:24:48.041Z,5.53
2018-07-30T22:27:16.525Z,5.03
2018-07-30T22:29:44.925Z,4.07
2018-07-30T22:32:13.307Z,3.80
2018-07-30T22:34:41.686Z,5.13
2018-07-30T22:37:10.058Z,4.27
2018-07-30T22:39:38.429Z,3.70
2018-07-30T22:42:07.705Z,3.13
2018-07-30T22:44:36.152Z,4.00
2018-07-30T22:47:04.622Z,3.53
2018-07-30T22:49:32.978Z,3.10
2018-07-30T22:52:01.037Z,3.27
2018-07-30T22:54:36.114Z,3.10
2018-07-30T22:57:04.557Z,2.73
2018-07-30T22:59:32.619Z,3.67
2018-07-30T23:02:00.683Z,2.50
2018-07-30T23:04:29.017Z,3.83
2018-07-30T23:06:57.475Z,3.87
2018-07-30T23:09:25.837Z,3.90
2018-07-30T23:11:53.872Z,4.73
2018-07-30T23:14:22.295Z,3.93
2018-07-30T23:16:50.685Z,4.40
2018-07-30T23:19:19.055Z,4.83
2018-07-30T23:21:47.446Z,3.93
2018-07-30T23:24:15.952Z,4.60
2018-07-30T23:26:44.393Z,3.60
2018-07-30T23:29:12.791Z,4.50
2018-07-30T23:31:41.183Z,4.47
2018-07-30T23:34:09.593Z,4.20
2018-07-30T23:36:38.048Z,4.27
2018-07-30T23:39:07.538Z,5.10
2018-07-30T23:41:35.925Z,4.90
2018-07-30T23:44:04.391Z,4.97
2018-07-30T23:46:32.750Z,4.13
2018-07-30T23:49:01.019Z,4.20
2018-07-30T23:51:29.539Z,4.13
2018-07-30T23:53:57.912Z,5.13
2018-07-30T23:56:26.355Z,4.73
2018-07-30T23:58:54.739Z,5.27
